sensor_id;sensor_type;location;lat;lon;timestamp;pressure;altitude;pressure_sealevel;temperature;humidity
53719;BME280;39616;48.872;9.390;2023-11-19T00:00:14;98264.00;;;7.53;100.00
53719;BME280;39616;48.872;9.390;2023-11-19T00:02:44;98268.28;;;7.54;100.00
53719;BME280;39616;48.872;9.390;2023-11-19T00:05:15;98263.44;;;7.56;100.00
53719;BME280;39616;48.872;9.390;2023-11-19T00:07:45;98265.34;;;7.56;100.00
53719;BME280;39616;48.872;9.390;2023-11-19T00:10:16;98259.09;;;7.60;100.00
53719;BME280;39616;48.872;9.390;2023-11-19T00:12:50;98252.09;;;7.59;100.00
53719;BME280;39616;48.872;9.390;2023-11-19T00:15:21;98241.06;;;7.56;100.00
53719;BME280;39616;48.872;9.390;2023-11-19T00:17:51;98236.97;;;7.63;100.00
53719;BME280;39616;48.872;9.390;2023-11-19T00:20:21;98240.75;;;7.62;100.00
53719;BME280;39616;48.872;9.390;2023-11-19T00:22:52;98221.25;;;7.70;100.00
53719;BME280;39616;48.872;9.390;2023-11-19T00:25:22;98215.06;;;7.65;100.00
53719;BME280;39616;48.872;9.390;2023-11-19T00:27:52;98213.47;;;7.64;100.00
53719;BME280;39616;48.872;9.390;2023-11-19T00:30:23;98228.00;;;7.68;100.00
53719;BME280;39616;48.872;9.390;2023-11-19T00:32:54;98223.97;;;7.65;100.00
53719;BME280;39616;48.872;9.390;2023-11-19T00:35:24;98211.81;;;7.68;100.00
53719;BME280;39616;48.872;9.390;2023-11-19T00:37:54;98214.50;;;7.68;100.00
53719;BME280;39616;48.872;9.390;2023-11-19T00:40:25;98212.88;;;7.72;100.00
53719;BME280;39616;48.872;9.390;2023-11-19T00:42:55;98216.13;;;7.69;100.00
53719;BME280;39616;48.872;9.390;2023-11-19T00:45:25;98224.19;;;7.74;100.00
53719;BME280;39616;48.872;9.390;2023-11-19T00:47:57;98216.38;;;7.72;100.00
53719;BME280;39616;48.872;9.390;2023-11-19T00:50:29;98227.41;;;7.76;100.00
53719;BME280;39616;48.872;9.390;2023-11-19T00:53:01;98221.50;;;7.74;100.00
53719;BME280;39616;48.872;9.390;2023-11-19T00:55:33;98219.88;;;7.73;100.00
53719;BME280;39616;48.872;9.390;2023-11-19T00:58:03;98216.91;;;7.74;100.00
53719;BME280;39616;48.872;9.390;2023-11-19T01:00:34;98218.75;;;7.79;100.00
53719;BME280;39616;48.872;9.390;2023-11-19T01:03:05;98207.44;;;7.77;100.00
53719;BME280;39616;48.872;9.390;2023-11-19T01:05:37;98218.75;;;7.84;100.00
53719;BME280;39616;48.872;9.390;2023-11-19T01:08:07;98209.00;;;7.83;100.00
53719;BME280;39616;48.872;9.390;2023-11-19T01:10:38;98204.66;;;7.87;100.00
53719;BME280;39616;48.872;9.390;2023-11-19T01:13:08;98207.91;;;7.89;100.00
53719;BME280;39616;48.872;9.390;2023-11-19T01:15:39;98204.91;;;7.91;100.00
53719;BME280;39616;48.872;9.390;2023-11-19T01:18:11;98198.94;;;7.94;100.00
53719;BME280;39616;48.872;9.390;2023-11-19T01:20:41;98198.38;;;7.97;100.00
53719;BME280;39616;48.872;9.390;2023-11-19T01:23:11;98195.38;;;7.98;100.00
53719;BME280;39616;48.872;9.390;2023-11-19T01:25:42;98195.63;;;8.02;100.00
53719;BME280;39616;48.872;9.390;2023-11-19T01:28:12;98197.53;;;8.02;100.00
53719;BME280;39616;48.872;9.390;2023-11-19T01:30:42;98180.22;;;8.08;100.00
53719;BME280;39616;48.872;9.390;2023-11-19T01:33:13;98177.22;;;8.09;100.00
53719;BME280;39616;48.872;9.390;2023-11-19T01:35:43;98182.91;;;8.08;100.00
53719;BME280;39616;48.872;9.390;2023-11-19T01:38:13;98177.50;;;8.08;100.00
53719;BME280;39616;48.872;9.390;2023-11-19T01:40:44;98179.66;;;8.11;100.00
53719;BME280;39616;48.872;9.390;2023-11-19T01:43:31;98183.66;;;8.13;100.00
53719;BME280;39616;48.872;9.390;2023-11-19T01:46:04;98183.41;;;8.10;100.00
53719;BME280;39616;48.872;9.390;2023-11-19T01:48:37;98176.41;;;8.09;100.00
53719;BME280;39616;48.872;9.390;2023-11-19T01:51:11;98182.34;;;8.11;100.00
53719;BME280;39616;48.872;9.390;2023-11-19T01:53:43;98177.75;;;8.11;100.00
53719;BME280;39616;48.872;9.390;2023-11-19T01:56:15;98179.09;;;8.14;100.00
53719;BME280;39616;48.872;9.390;2023-11-19T01:58:46;98178.00;;;8.15;100.00
53719;BME280;39616;48.872;9.390;2023-11-19T02:01:19;98169.81;;;8.20;100.00
53719;BME280;39616;48.872;9.390;2023-11-19T02:03:49;98177.41;;;8.18;100.00
53719;BME280;39616;48.872;9.390;2023-11-19T02:06:20;98184.44;;;8.19;100.00
53719;BME280;39616;48.872;9.390;2023-11-19T02:08:50;98186.31;;;8.18;100.00
53719;BME280;39616;48.872;9.390;2023-11-19T02:11:20;98180.94;;;8.18;100.00
53719;BME280;39616;48.872;9.390;2023-11-19T02:13:50;98180.34;;;8.21;100.00
53719;BME280;39616;48.872;9.390;2023-11-19T02:16:21;98169.25;;;8.23;100.00
53719;BME280;39616;48.872;9.390;2023-11-19T02:18:51;98163.31;;;8.21;100.00
53719;BME280;39616;48.872;9.390;2023-11-19T02:21:22;98164.38;;;8.25;100.00
53719;BME280;39616;48.872;9.390;2023-11-19T02:23:53;98166.72;;;8.32;100.00
53719;BME280;39616;48.872;9.390;2023-11-19T02:26:32;98160.81;;;8.30;100.00
53719;BME280;39616;48.872;9.390;2023-11-19T02:29:05;98153.81;;;8.29;100.00
53719;BME280;39616;48.872;9.390;2023-11-19T02:31:36;98150.25;;;8.33;100.00
53719;BME280;39616;48.872;9.390;2023-11-19T02:34:07;98153.81;;;8.29;100.00
53719;BME280;39616;48.872;9.390;2023-11-19T02:36:41;98157.59;;;8.28;100.00
53719;BME280;39616;48.872;9.390;2023-11-19T02:39:11;98156.00;;;8.27;100.00
53719;BME280;39616;48.872;9.390;2023-11-19T02:41:43;98159.72;;;8.31;100.00
53719;BME280;39616;48.872;9.390;2023-11-19T02:44:13;98157.56;;;8.33;100.00
53719;BME280;39616;48.872;9.390;2023-11-19T02:46:43;98160.53;;;8.31;100.00
53719;BME280;39616;48.872;9.390;2023-11-19T02:49:14;98162.97;;;8.33;100.00
53719;BME280;39616;48.872;9.390;2023-11-19T02:51:45;98159.47;;;8.32;100.00
53719;BME280;39616;48.872;9.390;2023-11-19T02:54:15;98160.50;;;8.36;100.00
53719;BME280;39616;48.872;9.390;2023-11-19T02:56:46;98160.50;;;8.36;100.00
53719;BME280;39616;48.872;9.390;2023-11-19T02:59:18;98159.94;;;8.39;100.00
53719;BME280;39616;48.872;9.390;2023-11-19T03:01:57;98151.81;;;8.39;100.00
53719;BME280;39616;48.872;9.390;2023-11-19T03:04:29;98152.34;;;8.41;100.00
53719;BME280;39616;48.872;9.390;2023-11-19T03:07:00;98168.03;;;8.39;100.00
53719;BME280;39616;48.872;9.390;2023-11-19T03:09:32;98155.91;;;8.37;100.00
53719;BME280;39616;48.872;9.390;2023-11-19T03:12:02;98169.66;;;8.40;100.00
53719;BME280;39616;48.872;9.390;2023-11-19T03:14:35;98168.03;;;8.39;100.00
53719;BME280;39616;48.872;9.390;2023-11-19T03:17:06;98155.34;;;8.40;100.00
53719;BME280;39616;48.872;9.390;2023-11-19T03:19:36;98165.34;;;8.39;100.00
53719;BME280;39616;48.872;9.390;2023-11-19T03:22:06;98164.84;;;8.37;100.00
53719;BME280;39616;48.872;9.390;2023-11-19T03:24:37;98169.13;;;8.38;100.00
53719;BME280;39616;48.872;9.390;2023-11-19T03:27:07;98166.16;;;8.40;100.00
53719;BME280;39616;48.872;9.390;2023-11-19T03:29:37;98170.97;;;8.43;100.00
53719;BME280;39616;48.872;9.390;2023-11-19T03:32:08;98177.72;;;8.45;100.00
53719;BME280;39616;48.872;9.390;2023-11-19T03:34:39;98170.72;;;8.44;100.00
53719;BME280;39616;48.872;9.390;2023-11-19T03:37:10;98155.00;;;8.46;100.00
53719;BME280;39616;48.872;9.390;2023-11-19T03:39:41;98145.66;;;8.63;100.00
53719;BME280;39616;48.872;9.390;2023-11-19T03:42:11;98151.56;;;8.65;100.00
53719;BME280;39616;48.872;9.390;2023-11-19T03:44:43;98140.50;;;8.61;100.00
53719;BME280;39616;48.872;9.390;2023-11-19T03:47:13;98134.06;;;8.57;100.00
53719;BME280;39616;48.872;9.390;2023-11-19T03:49:48;98125.16;;;8.57;100.00
53719;BME280;39616;48.872;9.390;2023-11-19T03:52:18;98124.91;;;8.58;100.00
53719;BME280;39616;48.872;9.390;2023-11-19T03:54:49;98124.03;;;8.63;100.00
53719;BME280;39616;48.872;9.390;2023-11-19T03:57:19;98124.53;;;8.65;100.00
53719;BME280;39616;48.872;9.390;2023-11-19T03:59:49;98122.56;;;8.70;100.00
53719;BME280;39616;48.872;9.390;2023-11-19T04:02:20;98109.56;;;8.73;100.00
53719;BME280;39616;48.872;9.390;2023-11-19T04:04:50;98105.25;;;8.71;100.00
53719;BME280;39616;48.872;9.390;2023-11-19T04:07:20;98102.78;;;8.75;100.00
53719;BME280;39616;48.872;9.390;2023-11-19T04:09:51;98101.91;;;8.80;100.00
53719;BME280;39616;48.872;9.390;2023-11-19T04:12:21;98099.94;;;8.85;100.00
53719;BME280;39616;48.872;9.390;2023-11-19T04:14:52;98103.19;;;8.87;100.00
53719;BME280;39616;48.872;9.390;2023-11-19T04:17:22;98105.59;;;8.89;100.00
53719;BME280;39616;48.872;9.390;2023-11-19T04:19:53;98108.78;;;8.91;100.00
53719;BME280;39616;48.872;9.390;2023-11-19T04:22:23;98118.22;;;8.93;100.00
53719;BME280;39616;48.872;9.390;2023-11-19T04:24:53;98106.31;;;8.94;100.00
53719;BME280;39616;48.872;9.390;2023-11-19T04:27:24;98100.53;;;9.01;100.00
53719;BME280;39616;48.872;9.390;2023-11-19T04:29:54;98106.97;;;9.05;100.00
53719;BME280;39616;48.872;9.390;2023-11-19T04:32:24;98107.50;;;9.07;100.00
53719;BME280;39616;48.872;9.390;2023-11-19T04:34:56;98099.88;;;9.09;100.00
53719;BME280;39616;48.872;9.390;2023-11-19T04:37:27;98104.44;;;9.14;100.00
53719;BME280;39616;48.872;9.390;2023-11-19T04:39:57;98096.53;;;9.17;100.00
53719;BME280;39616;48.872;9.390;2023-11-19T04:42:27;98086.53;;;9.18;100.00
53719;BME280;39616;48.872;9.390;2023-11-19T04:44:57;98096.47;;;9.23;100.00
53719;BME280;39616;48.872;9.390;2023-11-19T04:47:28;98107.81;;;9.25;100.00
53719;BME280;39616;48.872;9.390;2023-11-19T04:49:58;98102.91;;;9.27;100.00
53719;BME280;39616;48.872;9.390;2023-11-19T04:52:29;98111.00;;;9.27;100.00
53719;BME280;39616;48.872;9.390;2023-11-19T04:54:59;98111.53;;;9.29;100.00
53719;BME280;39616;48.872;9.390;2023-11-19T04:57:29;98107.94;;;9.33;100.00
53719;BME280;39616;48.872;9.390;2023-11-19T05:00:01;98103.63;;;9.32;100.00
53719;BME280;39616;48.872;9.390;2023-11-19T05:02:34;98111.19;;;9.35;100.00
53719;BME280;39616;48.872;9.390;2023-11-19T05:05:05;98111.97;;;9.36;100.00
53719;BME280;39616;48.872;9.390;2023-11-19T05:07:35;98104.94;;;9.35;100.00
53719;BME280;39616;48.872;9.390;2023-11-19T05:10:06;98105.16;;;9.38;100.00
53719;BME280;39616;48.872;9.390;2023-11-19T05:12:37;98110.50;;;9.43;100.00
53719;BME280;39616;48.872;9.390;2023-11-19T05:15:07;98106.78;;;9.39;100.00
53719;BME280;39616;48.872;9.390;2023-11-19T05:17:38;98104.06;;;9.39;100.00
53719;BME280;39616;48.872;9.390;2023-11-19T05:20:09;98104.28;;;9.43;100.00
53719;BME280;39616;48.872;9.390;2023-11-19T05:22:43;98114.28;;;9.42;100.00
53719;BME280;39616;48.872;9.390;2023-11-19T05:25:13;98123.72;;;9.45;100.00
53719;BME280;39616;48.872;9.390;2023-11-19T05:27:43;98121.25;;;9.49;100.00
53719;BME280;39616;48.872;9.390;2023-11-19T05:30:14;98112.63;;;9.47;100.00
53719;BME280;39616;48.872;9.390;2023-11-19T05:32:44;98107.22;;;9.47;100.00
53719;BME280;39616;48.872;9.390;2023-11-19T05:35:14;98110.94;;;9.51;100.00
53719;BME280;39616;48.872;9.390;2023-11-19T05:37:45;98121.69;;;9.56;100.00
53719;BME280;39616;48.872;9.390;2023-11-19T05:40:15;98113.56;;;9.56;100.00
53719;BME280;39616;48.872;9.390;2023-11-19T05:42:45;98116.78;;;9.58;100.00
53719;BME280;39616;48.872;9.390;2023-11-19T05:45:16;98117.88;;;9.57;100.00
53719;BME280;39616;48.872;9.390;2023-11-19T05:47:46;98119.97;;;9.60;100.00
53719;BME280;39616;48.872;9.390;2023-11-19T05:50:16;98117.22;;;9.65;100.00
53719;BME280;39616;48.872;9.390;2023-11-19T05:52:47;98106.97;;;9.62;100.00
53719;BME280;39616;48.872;9.390;2023-11-19T05:55:17;98112.88;;;9.64;100.00
53719;BME280;39616;48.872;9.390;2023-11-19T05:57:47;98103.91;;;9.68;100.00
53719;BME280;39616;48.872;9.390;2023-11-19T06:00:17;98099.50;;;9.73;100.00
53719;BME280;39616;48.872;9.390;2023-11-19T06:02:48;98119.75;;;9.75;100.00
53719;BME280;39616;48.872;9.390;2023-11-19T06:05:18;98118.72;;;9.71;100.00
53719;BME280;39616;48.872;9.390;2023-11-19T06:07:48;98103.28;;;9.72;100.00
53719;BME280;39616;48.872;9.390;2023-11-19T06:10:19;98112.44;;;9.76;100.00
53719;BME280;39616;48.872;9.390;2023-11-19T06:12:50;98104.59;;;9.74;100.00
53719;BME280;39616;48.872;9.390;2023-11-19T06:15:26;98114.75;;;9.82;100.00
53719;BME280;39616;48.872;9.390;2023-11-19T06:17:59;98116.88;;;9.85;100.00
53719;BME280;39616;48.872;9.390;2023-11-19T06:20:32;98114.09;;;9.90;100.00
53719;BME280;39616;48.872;9.390;2023-11-19T06:23:03;98118.41;;;9.91;100.00
53719;BME280;39616;48.872;9.390;2023-11-19T06:25:33;98112.59;;;9.98;100.00
53719;BME280;39616;48.872;9.390;2023-11-19T06:28:05;98116.69;;;9.96;100.00
53719;BME280;39616;48.872;9.390;2023-11-19T06:30:35;98114.00;;;9.96;100.00
53719;BME280;39616;48.872;9.390;2023-11-19T06:33:06;98116.13;;;9.99;100.00
53719;BME280;39616;48.872;9.390;2023-11-19T06:35:36;98115.22;;;10.03;100.00
53719;BME280;39616;48.872;9.390;2023-11-19T06:38:07;98117.34;;;10.06;100.00
53719;BME280;39616;48.872;9.390;2023-11-19T06:40:37;98121.94;;;10.06;100.00
53719;BME280;39616;48.872;9.390;2023-11-19T06:43:07;98116.22;;;10.07;100.00
53719;BME280;39616;48.872;9.390;2023-11-19T06:45:40;98123.88;;;10.05;100.00
53719;BME280;39616;48.872;9.390;2023-11-19T06:48:11;98127.06;;;10.07;100.00
53719;BME280;39616;48.872;9.390;2023-11-19T06:50:41;98130.50;;;10.13;100.00
53719;BME280;39616;48.872;9.390;2023-11-19T06:53:11;98131.09;;;10.10;100.00
53719;BME280;39616;48.872;9.390;2023-11-19T06:55:42;98131.56;;;10.12;100.00
53719;BME280;39616;48.872;9.390;2023-11-19T06:58:12;98126.97;;;10.12;100.00
53719;BME280;39616;48.872;9.390;2023-11-19T07:00:42;98132.38;;;10.12;100.00
53719;BME280;39616;48.872;9.390;2023-11-19T07:03:12;98131.78;;;10.15;100.00
53719;BME280;39616;48.872;9.390;2023-11-19T07:05:43;98138.22;;;10.20;100.00
53719;BME280;39616;48.872;9.390;2023-11-19T07:08:13;98130.91;;;10.20;100.00
53719;BME280;39616;48.872;9.390;2023-11-19T07:10:44;98121.75;;;10.16;100.00
53719;BME280;39616;48.872;9.390;2023-11-19T07:13:14;98126.38;;;10.15;100.00
53719;BME280;39616;48.872;9.390;2023-11-19T07:15:45;98128.78;;;10.17;100.00
53719;BME280;39616;48.872;9.390;2023-11-19T07:18:15;98135.28;;;10.16;100.00
53719;BME280;39616;48.872;9.390;2023-11-19T07:20:46;98141.22;;;10.18;100.00
53719;BME280;39616;48.872;9.390;2023-11-19T07:23:16;98138.53;;;10.18;100.00
53719;BME280;39616;48.872;9.390;2023-11-19T07:25:47;98149.38;;;10.18;100.00
53719;BME280;39616;48.872;9.390;2023-11-19T07:28:17;98159.88;;;10.20;100.00
53719;BME280;39616;48.872;9.390;2023-11-19T07:30:48;98165.75;;;10.27;100.00
53719;BME280;39616;48.872;9.390;2023-11-19T07:33:18;98166.59;;;10.27;100.00
53719;BME280;39616;48.872;9.390;2023-11-19T07:35:48;98161.06;;;10.32;100.00
53719;BME280;39616;48.872;9.390;2023-11-19T07:38:19;98158.34;;;10.32;100.00
53719;BME280;39616;48.872;9.390;2023-11-19T07:40:49;98164.06;;;10.31;100.00
53719;BME280;39616;48.872;9.390;2023-11-19T07:43:19;98170.53;;;10.35;100.00
53719;BME280;39616;48.872;9.390;2023-11-19T07:45:50;98167.81;;;10.35;100.00
53719;BME280;39616;48.872;9.390;2023-11-19T07:48:20;98177.75;;;10.39;100.00
53719;BME280;39616;48.872;9.390;2023-11-19T07:50:54;98175.03;;;10.39;100.00
53719;BME280;39616;48.872;9.390;2023-11-19T07:53:24;98178.75;;;10.44;100.00
53719;BME280;39616;48.872;9.390;2023-11-19T07:55:55;98170.94;;;10.42;100.00
53719;BME280;39616;48.872;9.390;2023-11-19T07:58:25;98166.31;;;10.43;100.00
53719;BME280;39616;48.872;9.390;2023-11-19T08:00:55;98166.22;;;10.48;100.00
53719;BME280;39616;48.872;9.390;2023-11-19T08:03:26;98170.84;;;10.47;100.00
53719;BME280;39616;48.872;9.390;2023-11-19T08:05:56;98172.44;;;10.48;100.00
53719;BME280;39616;48.872;9.390;2023-11-19T08:08:29;98173.75;;;10.51;100.00
53719;BME280;39616;48.872;9.390;2023-11-19T08:11:00;98173.75;;;10.51;100.00
53719;BME280;39616;48.872;9.390;2023-11-19T08:13:31;98172.56;;;10.57;100.00
53719;BME280;39616;48.872;9.390;2023-11-19T08:16:01;98164.31;;;10.62;100.00
53719;BME280;39616;48.872;9.390;2023-11-19T08:18:32;98155.06;;;10.63;100.00
53719;BME280;39616;48.872;9.390;2023-11-19T08:21:02;98149.97;;;10.75;100.00
53719;BME280;39616;48.872;9.390;2023-11-19T08:23:36;98156.16;;;10.89;100.00
53719;BME280;39616;48.872;9.390;2023-11-19T08:26:06;98152.66;;;11.03;100.00
53719;BME280;39616;48.872;9.390;2023-11-19T08:28:37;98153.66;;;11.07;100.00
53719;BME280;39616;48.872;9.390;2023-11-19T08:31:07;98146.72;;;11.15;100.00
53719;BME280;39616;48.872;9.390;2023-11-19T08:33:37;98146.91;;;11.18;100.00
53719;BME280;39616;48.872;9.390;2023-11-19T08:36:08;98158.84;;;11.31;100.00
53719;BME280;39616;48.872;9.390;2023-11-19T08:38:38;98160.78;;;11.30;100.00
53719;BME280;39616;48.872;9.390;2023-11-19T08:41:09;98158.06;;;11.30;100.00
53719;BME280;39616;48.872;9.390;2023-11-19T08:43:40;98161.56;;;11.31;100.00
53719;BME280;39616;48.872;9.390;2023-11-19T08:46:11;98163.56;;;11.25;100.00
53719;BME280;39616;48.872;9.390;2023-11-19T08:48:42;98164.69;;;11.24;100.00
53719;BME280;39616;48.872;9.390;2023-11-19T08:51:12;98175.56;;;11.24;100.00
53719;BME280;39616;48.872;9.390;2023-11-19T08:53:43;98173.44;;;11.21;100.00
53719;BME280;39616;48.872;9.390;2023-11-19T08:56:13;98166.81;;;11.27;100.00
53719;BME280;39616;48.872;9.390;2023-11-19T08:58:44;98178.25;;;11.24;100.00
53719;BME280;39616;48.872;9.390;2023-11-19T09:01:14;98189.00;;;11.29;100.00
53719;BME280;39616;48.872;9.390;2023-11-19T09:03:45;98194.53;;;11.24;100.00
53719;BME280;39616;48.872;9.390;2023-11-19T09:06:15;98200.25;;;11.23;100.00
53719;BME280;39616;48.872;9.390;2023-11-19T09:08:45;98197.66;;;11.31;100.00
53719;BME280;39616;48.872;9.390;2023-11-19T09:11:16;98205.47;;;11.33;100.00
53719;BME280;39616;48.872;9.390;2023-11-19T09:13:46;98188.97;;;11.43;100.00
53719;BME280;39616;48.872;9.390;2023-11-19T09:16:17;98185.72;;;11.55;100.00
53719;BME280;39616;48.872;9.390;2023-11-19T09:18:47;98193.66;;;11.65;100.00
53719;BME280;39616;48.872;9.390;2023-11-19T09:21:17;98201.06;;;11.73;100.00
53719;BME280;39616;48.872;9.390;2023-11-19T09:23:48;98191.00;;;11.74;100.00
53719;BME280;39616;48.872;9.390;2023-11-19T09:26:19;98210.34;;;11.72;100.00
53719;BME280;39616;48.872;9.390;2023-11-19T09:28:49;98209.22;;;11.73;100.00
53719;BME280;39616;48.872;9.390;2023-11-19T09:31:19;98205.91;;;11.76;100.00
53719;BME280;39616;48.872;9.390;2023-11-19T09:33:50;98209.22;;;11.73;100.00
53719;BME280;39616;48.872;9.390;2023-11-19T09:36:20;98208.22;;;11.69;100.00
53719;BME280;39616;48.872;9.390;2023-11-19T09:38:50;98210.16;;;11.69;100.00
53719;BME280;39616;48.872;9.390;2023-11-19T09:41:21;98206.03;;;11.71;100.00
53719;BME280;39616;48.872;9.390;2023-11-19T09:43:51;98203.78;;;11.73;100.00
53719;BME280;39616;48.872;9.390;2023-11-19T09:46:21;98204.53;;;11.65;100.00
53719;BME280;39616;48.872;9.390;2023-11-19T09:48:55;98213.47;;;11.66;100.00
53719;BME280;39616;48.872;9.390;2023-11-19T09:51:27;98217.41;;;11.59;100.00
53719;BME280;39616;48.872;9.390;2023-11-19T09:53:58;98222.03;;;11.59;100.00
53719;BME280;39616;48.872;9.390;2023-11-19T09:56:32;98222.22;;;11.63;100.00
53719;BME280;39616;48.872;9.390;2023-11-19T09:59:03;98224.03;;;11.67;100.00
53719;BME280;39616;48.872;9.390;2023-11-19T10:01:33;98221.88;;;11.78;100.00
53719;BME280;39616;48.872;9.390;2023-11-19T10:04:05;98211.75;;;11.83;100.00
53719;BME280;39616;48.872;9.390;2023-11-19T10:06:36;98214.09;;;11.99;100.00
53719;BME280;39616;48.872;9.390;2023-11-19T10:09:06;98203.97;;;12.13;100.00
53719;BME280;39616;48.872;9.390;2023-11-19T10:11:37;98204.03;;;12.22;100.00
53719;BME280;39616;48.872;9.390;2023-11-19T10:14:07;98201.59;;;12.43;100.00
53719;BME280;39616;48.872;9.390;2023-11-19T10:16:37;98202.06;;;12.67;100.00
53719;BME280;39616;48.872;9.390;2023-11-19T10:19:12;98200.03;;;12.81;100.00
53719;BME280;39616;48.872;9.390;2023-11-19T10:21:48;98195.25;;;12.87;100.00
53719;BME280;39616;48.872;9.390;2023-11-19T10:24:31;98188.22;;;12.86;100.00
53719;BME280;39616;48.872;9.390;2023-11-19T10:27:01;98188.66;;;12.79;100.00
53719;BME280;39616;48.872;9.390;2023-11-19T10:29:36;98197.94;;;12.78;100.00
53719;BME280;39616;48.872;9.390;2023-11-19T10:32:06;98200.69;;;12.87;100.00
53719;BME280;39616;48.872;9.390;2023-11-19T10:34:37;98196.75;;;13.02;100.00
53719;BME280;39616;48.872;9.390;2023-11-19T10:37:27;98202.69;;;13.13;100.00
53719;BME280;39616;48.872;9.390;2023-11-19T10:39:57;98196.13;;;13.14;100.00
53719;BME280;39616;48.872;9.390;2023-11-19T10:42:28;98188.59;;;13.11;100.00
53719;BME280;39616;48.872;9.390;2023-11-19T10:44:58;98189.25;;;13.16;100.00
53719;BME280;39616;48.872;9.390;2023-11-19T10:47:28;98185.88;;;13.11;100.00
53719;BME280;39616;48.872;9.390;2023-11-19T10:50:00;98193.38;;;12.96;100.00
53719;BME280;39616;48.872;9.390;2023-11-19T10:52:31;98199.00;;;13.00;100.00
53719;BME280;39616;48.872;9.390;2023-11-19T10:55:03;98204.13;;;13.10;100.00
53719;BME280;39616;48.872;9.390;2023-11-19T10:57:36;98196.69;;;13.24;100.00
53719;BME280;39616;48.872;9.390;2023-11-19T11:00:11;98189.97;;;13.31;100.00
53719;BME280;39616;48.872;9.390;2023-11-19T11:02:45;98180.84;;;13.26;100.00
53719;BME280;39616;48.872;9.390;2023-11-19T11:05:21;98182.56;;;13.22;100.00
53719;BME280;39616;48.872;9.390;2023-11-19T11:07:55;98171.16;;;13.20;100.00
53719;BME280;39616;48.872;9.390;2023-11-19T11:10:26;98174.22;;;13.19;100.00
53719;BME280;39616;48.872;9.390;2023-11-19T11:12:59;98172.78;;;13.21;100.00
53719;BME280;39616;48.872;9.390;2023-11-19T11:15:30;98173.81;;;13.34;100.00
53719;BME280;39616;48.872;9.390;2023-11-19T11:18:02;98172.66;;;13.35;100.00
53719;BME280;39616;48.872;9.390;2023-11-19T11:20:33;98169.47;;;13.50;100.00
53719;BME280;39616;48.872;9.390;2023-11-19T11:28:58;98168.84;;;13.62;100.00
53719;BME280;39616;48.872;9.390;2023-11-19T11:31:39;98183.63;;;13.70;95.70
53719;BME280;39616;48.872;9.390;2023-11-19T11:39:46;98171.44;;;13.85;98.88
53719;BME280;39616;48.872;9.390;2023-11-19T11:44:58;98190.03;;;13.74;96.75
53719;BME280;39616;48.872;9.390;2023-11-19T11:50:14;98184.41;;;13.79;97.34
53719;BME280;39616;48.872;9.390;2023-11-19T11:55:34;98163.91;;;13.82;94.97
53719;BME280;39616;48.872;9.390;2023-11-19T11:58:06;98168.22;;;13.83;95.88
53719;BME280;39616;48.872;9.390;2023-11-19T12:00:40;98167.09;;;13.75;96.45
53719;BME280;39616;48.872;9.390;2023-11-19T12:03:11;98155.88;;;13.68;94.33
53719;BME280;39616;48.872;9.390;2023-11-19T12:05:45;98152.69;;;13.74;96.38
53719;BME280;39616;48.872;9.390;2023-11-19T12:08:19;98142.56;;;13.75;92.78
53719;BME280;39616;48.872;9.390;2023-11-19T12:10:51;98144.81;;;13.82;94.94
53719;BME280;39616;48.872;9.390;2023-11-19T12:13:22;98149.13;;;14.00;91.30
53719;BME280;39616;48.872;9.390;2023-11-19T12:18:32;98142.03;;;14.16;93.33
53719;BME280;39616;48.872;9.390;2023-11-19T12:21:03;98132.09;;;14.12;91.21
53719;BME280;39616;48.872;9.390;2023-11-19T12:23:44;98133.69;;;14.21;89.43
53719;BME280;39616;48.872;9.390;2023-11-19T12:26:35;98133.84;;;14.16;91.13
53719;BME280;39616;48.872;9.390;2023-11-19T12:29:06;98119.91;;;14.18;91.33
53719;BME280;39616;48.872;9.390;2023-11-19T12:31:36;98122.97;;;14.08;91.50
53719;BME280;39616;48.872;9.390;2023-11-19T12:34:07;98126.03;;;13.97;92.70
53719;BME280;39616;48.872;9.390;2023-11-19T12:36:42;98112.44;;;13.89;91.86
53719;BME280;39616;48.872;9.390;2023-11-19T12:39:12;98114.97;;;13.94;91.60
53719;BME280;39616;48.872;9.390;2023-11-19T12:41:50;98112.75;;;13.87;92.89
53719;BME280;39616;48.872;9.390;2023-11-19T12:44:21;98110.66;;;13.75;95.00
53719;BME280;39616;48.872;9.390;2023-11-19T12:47:05;98102.84;;;13.74;92.79
53719;BME280;39616;48.872;9.390;2023-11-19T12:49:41;98100.41;;;13.72;90.45
53719;BME280;39616;48.872;9.390;2023-11-19T12:52:12;98090.47;;;13.85;86.52
53719;BME280;39616;48.872;9.390;2023-11-19T12:54:42;98085.66;;;13.82;85.64
53719;BME280;39616;48.872;9.390;2023-11-19T12:57:13;98088.88;;;13.75;85.18
53719;BME280;39616;48.872;9.390;2023-11-19T12:59:43;98090.63;;;13.89;82.21
53719;BME280;39616;48.872;9.390;2023-11-19T13:02:44;98092.41;;;13.85;82.35
53719;BME280;39616;48.872;9.390;2023-11-19T13:05:31;98100.88;;;13.83;82.20
53719;BME280;39616;48.872;9.390;2023-11-19T13:08:06;98089.19;;;13.83;81.75
53719;BME280;39616;48.872;9.390;2023-11-19T13:10:50;98088.22;;;13.96;80.45
53719;BME280;39616;48.872;9.390;2023-11-19T13:13:21;98093.13;;;14.02;81.53
53719;BME280;39616;48.872;9.390;2023-11-19T13:15:51;98100.22;;;14.04;81.43
53719;BME280;39616;48.872;9.390;2023-11-19T13:18:22;98089.81;;;13.97;83.08
53719;BME280;39616;48.872;9.390;2023-11-19T13:20:52;98094.31;;;13.93;83.97
53719;BME280;39616;48.872;9.390;2023-11-19T13:23:22;98088.22;;;13.87;84.33
53719;BME280;39616;48.872;9.390;2023-11-19T13:25:53;98093.66;;;13.96;82.58
53719;BME280;39616;48.872;9.390;2023-11-19T13:28:23;98090.28;;;13.90;85.57
53719;BME280;39616;48.872;9.390;2023-11-19T13:30:53;98094.91;;;13.98;81.27
53719;BME280;39616;48.872;9.390;2023-11-19T13:33:23;98095.72;;;13.99;83.43
53719;BME280;39616;48.872;9.390;2023-11-19T13:35:54;98082.09;;;14.08;83.24
53719;BME280;39616;48.872;9.390;2023-11-19T13:38:25;98090.72;;;14.10;80.51
53719;BME280;39616;48.872;9.390;2023-11-19T13:40:55;98083.81;;;14.12;78.73